Time;durP1;ratioP1;P1;durP2;ratioP2;P2;SDS_P1;SDS_P2;PMS_P1;PMS_P2;Temp;Humidity;BMP_temperature;BMP_pressure;BME280_temperature;BME280_humidity;BME280_pressure;Samples;Min_cycle;Max_cycle;Signal;HPM_P1;HPM_P2
2022/10/09 00:02:42;;;;;;;;;;;;;;;12.20;100.00;100277.31;4483956;31;34564;-77
2022/10/09 00:05:28;;;;;;;;;;;;;;;12.49;100.00;100280.53;4496833;31;35520;-77
2022/10/09 00:08:14;;;;;;;;;;;;;;;13.01;100.00;100274.69;4496924;31;36142;-77
2022/10/09 00:11:07;;;;;;;;;;;;;;;13.13;100.00;100268.63;4496765;31;35830;-77
2022/10/09 00:13:53;;;;;;;;;;;;;;;12.57;100.00;100279.78;4484631;31;34231;-77
2022/10/09 00:16:39;;;;;;;;;;;;;;;11.38;100.00;100274.13;4484747;31;34910;-77
2022/10/09 00:19:25;;;;;;;;;;;;;;;12.14;100.00;100269.16;4484469;31;36120;-76
2022/10/09 00:22:11;;;;;;;;;;;;;;;12.27;100.00;100272.22;4496282;31;34984;-77
2022/10/09 00:24:57;;;;;;;;;;;;;;;11.86;100.00;100273.03;4486831;31;34950;-77
2022/10/09 00:27:43;;;;;;;;;;;;;;;11.95;100.00;100265.69;4483112;31;34533;-77
2022/10/09 00:30:29;;;;;;;;;;;;;;;11.58;100.00;100261.97;4484084;31;35220;-77
2022/10/09 00:33:15;;;;;;;;;;;;;;;11.53;100.00;100258.53;4484574;31;34558;-77
2022/10/09 00:36:05;;;;;;;;;;;;;;;11.74;100.00;100258.97;4484596;31;34984;-77
2022/10/09 00:38:52;;;;;;;;;;;;;;;11.71;100.00;100257.63;4496370;31;35948;-77
2022/10/09 00:41:37;;;;;;;;;;;;;;;10.99;100.00;100260.81;4496400;31;35258;-77
2022/10/09 00:44:42;;;;;;;;;;;;;;;11.28;100.00;100254.31;4496376;31;33817;-77
2022/10/09 00:47:30;;;;;;;;;;;;;;;11.18;100.00;100250.59;4484028;31;33986;-77
2022/10/09 00:50:18;;;;;;;;;;;;;;;11.30;100.00;100249.31;4484251;31;34663;-77
2022/10/09 00:53:04;;;;;;;;;;;;;;;11.17;100.00;100246.22;4483999;31;35246;-77
2022/10/09 00:55:51;;;;;;;;;;;;;;;11.08;100.00;100248.03;4496509;31;34973;-77
2022/10/09 00:58:37;;;;;;;;;;;;;;;11.20;100.00;100240.16;4496294;31;34160;-77
2022/10/09 01:01:23;;;;;;;;;;;;;;;11.86;100.00;100240.87;4495971;31;34863;-77
2022/10/09 01:04:09;;;;;;;;;;;;;;;11.97;100.00;100230.50;4474348;31;35239;-77
2022/10/09 01:06:59;;;;;;;;;;;;;;;12.58;100.00;100229.22;4485026;31;35605;-77
2022/10/09 01:10:03;;;;;;;;;;;;;;;12.37;100.00;100230.78;4495603;31;35328;-77
2022/10/09 01:12:59;;;;;;;;;;;;;;;12.46;100.00;100231.66;4484518;31;35526;-77
2022/10/09 01:15:49;;;;;;;;;;;;;;;12.88;100.00;100229.59;4498281;31;34187;-76
2022/10/09 01:18:44;;;;;;;;;;;;;;;12.44;100.00;100233.13;4486216;31;34427;-76
2022/10/09 01:21:30;;;;;;;;;;;;;;;12.32;100.00;100231.72;4486119;31;33704;-77
2022/10/09 01:24:22;;;;;;;;;;;;;;;12.10;100.00;100237.13;4497965;31;34685;-77
2022/10/09 01:27:09;;;;;;;;;;;;;;;12.40;100.00;100238.41;4486282;31;34781;-77
2022/10/09 01:29:56;;;;;;;;;;;;;;;11.52;100.00;100230.25;4486421;31;34947;-77
2022/10/09 01:32:42;;;;;;;;;;;;;;;12.34;100.00;100234.13;4486490;31;34095;-77
2022/10/09 01:35:28;;;;;;;;;;;;;;;11.55;100.00;100237.06;4481316;31;35779;-77
2022/10/09 01:38:15;;;;;;;;;;;;;;;11.49;100.00;100241.84;4497954;31;35266;-77
2022/10/09 01:41:01;;;;;;;;;;;;;;;12.00;100.00;100243.63;4485881;31;34417;-77
2022/10/09 01:43:47;;;;;;;;;;;;;;;11.96;100.00;100245.38;4498269;31;32866;-77
2022/10/09 01:46:33;;;;;;;;;;;;;;;12.20;100.00;100236.09;4497696;31;34614;-77
2022/10/09 01:49:22;;;;;;;;;;;;;;;12.07;100.00;100241.31;4497775;31;36557;-77
2022/10/09 01:52:23;;;;;;;;;;;;;;;12.14;100.00;100236.19;4486447;31;35669;-77
2022/10/09 01:55:21;;;;;;;;;;;;;;;12.17;100.00;100239.47;4497346;31;34173;-77
2022/10/09 01:58:18;;;;;;;;;;;;;;;12.68;100.00;100228.16;4499250;31;35677;-77
2022/10/09 02:01:09;;;;;;;;;;;;;;;12.41;100.00;100230.97;4497546;31;36062;-76
2022/10/09 02:03:56;;;;;;;;;;;;;;;12.53;100.00;100247.75;4497431;31;37314;-77
2022/10/09 02:06:42;;;;;;;;;;;;;;;12.51;100.00;100245.31;4485639;31;35072;-77
2022/10/09 02:09:28;;;;;;;;;;;;;;;12.27;100.00;100244.75;4482871;31;34523;-77
2022/10/09 02:12:14;;;;;;;;;;;;;;;12.28;100.00;100240.87;4474764;31;35301;-77
2022/10/09 02:14:59;;;;;;;;;;;;;;;11.87;100.00;100247.22;4486760;31;35579;-77
2022/10/09 02:17:46;;;;;;;;;;;;;;;12.10;100.00;100246.19;4498970;31;34638;-77
2022/10/09 02:20:33;;;;;;;;;;;;;;;11.91;100.00;100257.25;4485528;31;35105;-77
2022/10/09 02:23:19;;;;;;;;;;;;;;;12.03;100.00;100262.25;4484006;31;36042;-77
2022/10/09 02:26:05;;;;;;;;;;;;;;;12.12;100.00;100262.34;4485970;31;34520;-77
2022/10/09 02:28:52;;;;;;;;;;;;;;;12.03;100.00;100265.00;4486942;31;34008;-77
2022/10/09 02:31:39;;;;;;;;;;;;;;;12.04;100.00;100255.66;4487012;31;35340;-77
2022/10/09 02:34:25;;;;;;;;;;;;;;;12.13;100.00;100258.50;4489033;31;35209;-77
2022/10/09 02:37:11;;;;;;;;;;;;;;;12.05;100.00;100268.25;4497657;31;34958;-77
2022/10/09 02:39:57;;;;;;;;;;;;;;;12.18;100.00;100271.28;4485220;31;34849;-77
2022/10/09 02:42:43;;;;;;;;;;;;;;;12.29;100.00;100269.97;4498099;31;36503;-77
2022/10/09 02:45:29;;;;;;;;;;;;;;;12.46;100.00;100274.84;4497538;31;36050;-78
2022/10/09 02:48:15;;;;;;;;;;;;;;;12.05;100.00;100273.75;4485655;31;34555;-77
2022/10/09 02:51:01;;;;;;;;;;;;;;;12.17;100.00;100278.72;4497757;31;34112;-77
2022/10/09 02:53:47;;;;;;;;;;;;;;;12.14;100.00;100282.91;4497279;31;35074;-77
2022/10/09 02:56:33;;;;;;;;;;;;;;;12.15;100.00;100287.28;4497820;31;35047;-77
2022/10/09 02:59:23;;;;;;;;;;;;;;;12.10;100.00;100290.12;4486594;31;35122;-77
2022/10/09 03:02:10;;;;;;;;;;;;;;;12.05;100.00;100303.97;4497596;31;34152;-77
2022/10/09 03:04:56;;;;;;;;;;;;;;;12.26;100.00;100293.38;4497815;31;34674;-78
2022/10/09 03:07:49;;;;;;;;;;;;;;;12.29;100.00;100311.19;4497473;31;36792;-77
2022/10/09 03:10:36;;;;;;;;;;;;;;;12.28;100.00;100304.06;4486276;31;34422;-76
2022/10/09 03:13:22;;;;;;;;;;;;;;;12.12;100.00;100304.38;4478717;31;34107;-77
2022/10/09 03:16:09;;;;;;;;;;;;;;;12.34;100.00;100300.09;4497549;31;35438;-78
2022/10/09 03:18:57;;;;;;;;;;;;;;;12.28;100.00;100296.62;4481182;31;34675;-76
2022/10/09 03:21:43;;;;;;;;;;;;;;;12.10;100.00;100295.63;4498612;31;34504;-77
2022/10/09 03:24:29;;;;;;;;;;;;;;;12.09;100.00;100299.47;4497403;31;34887;-78
2022/10/09 03:27:15;;;;;;;;;;;;;;;12.06;100.00;100305.59;4497528;31;35625;-77
2022/10/09 03:30:02;;;;;;;;;;;;;;;12.19;100.00;100314.16;4497044;31;36171;-77
2022/10/09 03:32:48;;;;;;;;;;;;;;;12.14;100.00;100307.63;4485883;31;35330;-77
2022/10/09 03:35:34;;;;;;;;;;;;;;;12.30;100.00;100315.56;4484570;31;34136;-77
2022/10/09 03:38:20;;;;;;;;;;;;;;;12.34;100.00;100311.87;4496518;31;34560;-77
2022/10/09 03:41:06;;;;;;;;;;;;;;;12.29;100.00;100308.44;4497175;31;35312;-77
2022/10/09 03:43:52;;;;;;;;;;;;;;;12.19;100.00;100303.97;4496767;31;35595;-77
2022/10/09 03:46:38;;;;;;;;;;;;;;;12.15;100.00;100303.78;4496240;31;33727;-77
2022/10/09 03:49:25;;;;;;;;;;;;;;;12.59;100.00;100315.22;4497002;31;35538;-78
2022/10/09 03:52:11;;;;;;;;;;;;;;;12.21;100.00;100317.38;4485513;31;36080;-78
2022/10/09 03:54:56;;;;;;;;;;;;;;;12.18;100.00;100328.97;4485283;31;35035;-77
2022/10/09 03:57:42;;;;;;;;;;;;;;;12.10;100.00;100334.09;4474692;31;34295;-77
2022/10/09 04:00:28;;;;;;;;;;;;;;;12.09;100.00;100332.44;4485160;31;35006;-77
2022/10/09 04:03:14;;;;;;;;;;;;;;;12.35;100.00;100340.19;4484026;31;35307;-77
2022/10/09 04:06:00;;;;;;;;;;;;;;;12.28;100.00;100331.53;4484688;31;34469;-76
2022/10/09 04:08:47;;;;;;;;;;;;;;;12.17;100.00;100336.41;4496446;31;32872;-77
2022/10/09 04:11:33;;;;;;;;;;;;;;;12.23;100.00;100339.88;4484197;31;35836;-77
2022/10/09 04:14:19;;;;;;;;;;;;;;;12.12;100.00;100331.84;4496451;31;36262;-77
2022/10/09 04:17:05;;;;;;;;;;;;;;;12.25;100.00;100330.22;4496098;31;34977;-77
2022/10/09 04:19:51;;;;;;;;;;;;;;;12.29;100.00;100324.91;4496178;31;34159;-78
2022/10/09 04:22:37;;;;;;;;;;;;;;;12.32;100.00;100321.56;4496526;31;34975;-78
2022/10/09 04:25:23;;;;;;;;;;;;;;;12.36;100.00;100336.34;4486101;31;36224;-77
2022/10/09 04:28:09;;;;;;;;;;;;;;;12.53;100.00;100328.28;4495544;31;34956;-77
2022/10/09 04:30:56;;;;;;;;;;;;;;;12.60;100.00;100327.84;4484311;31;33544;-78
2022/10/09 04:33:42;;;;;;;;;;;;;;;12.52;100.00;100337.66;4484925;31;34913;-78
2022/10/09 04:36:28;;;;;;;;;;;;;;;12.38;100.00;100339.59;4496467;31;34846;-78
2022/10/09 04:39:14;;;;;;;;;;;;;;;12.28;100.00;100361.78;4496316;31;34962;-77
2022/10/09 04:42:00;;;;;;;;;;;;;;;12.41;100.00;100355.47;4484262;31;33783;-78
2022/10/09 04:44:46;;;;;;;;;;;;;;;12.43;100.00;100353.22;4484829;31;34997;-77
2022/10/09 04:47:33;;;;;;;;;;;;;;;12.33;100.00;100375.41;4497118;31;35220;-77
2022/10/09 04:50:19;;;;;;;;;;;;;;;12.46;100.00;100369.09;4485983;31;35064;-77
2022/10/09 04:53:15;;;;;;;;;;;;;;;12.40;100.00;100408.78;4499255;31;33141;-77
2022/10/09 04:56:05;;;;;;;;;;;;;;;12.50;100.00;100403.09;4498195;31;34977;-77
2022/10/09 04:58:51;;;;;;;;;;;;;;;12.50;100.00;100413.28;4486263;31;36014;-77
2022/10/09 05:01:37;;;;;;;;;;;;;;;12.82;100.00;100409.59;4486254;31;34865;-78
2022/10/09 05:04:23;;;;;;;;;;;;;;;12.98;100.00;100413.66;4498243;31;34085;-78
2022/10/09 05:07:09;;;;;;;;;;;;;;;13.18;100.00;100400.59;4498022;31;34990;-78
2022/10/09 05:09:56;;;;;;;;;;;;;;;13.23;100.00;100394.94;4486134;31;36065;-77
2022/10/09 05:12:42;;;;;;;;;;;;;;;13.19;100.00;100400.25;4498713;31;35646;-77
2022/10/09 05:15:28;;;;;;;;;;;;;;;13.02;100.00;100403.66;4497983;31;34619;-77
2022/10/09 05:18:14;;;;;;;;;;;;;;;12.38;100.00;100406.37;4486807;31;34983;-77
2022/10/09 05:21:04;;;;;;;;;;;;;;;12.73;100.00;100400.47;4487054;31;35261;-77
2022/10/09 05:23:50;;;;;;;;;;;;;;;12.89;100.00;100393.50;4486613;31;34526;-77
2022/10/09 05:26:36;;;;;;;;;;;;;;;12.47;100.00;100403.72;4486730;31;34805;-77
2022/10/09 05:29:22;;;;;;;;;;;;;;;12.53;100.00;100407.19;4487407;31;34925;-77
2022/10/09 05:32:08;;;;;;;;;;;;;;;12.50;100.00;100408.59;4498006;31;35162;-78
2022/10/09 05:34:54;;;;;;;;;;;;;;;12.90;100.00;100397.88;4498218;31;34986;-77
2022/10/09 05:37:42;;;;;;;;;;;;;;;12.90;100.00;100408.09;4486131;31;34602;-77
2022/10/09 05:40:28;;;;;;;;;;;;;;;12.46;100.00;100413.06;4485979;31;35833;-77
2022/10/09 05:43:15;;;;;;;;;;;;;;;12.54;100.00;100409.59;4498140;31;35188;-77
2022/10/09 05:46:17;;;;;;;;;;;;;;;12.54;100.00;100426.09;4498578;31;34703;-77
2022/10/09 05:49:06;;;;;;;;;;;;;;;12.51;100.00;100421.22;4486813;31;35049;-77
2022/10/09 05:51:53;;;;;;;;;;;;;;;12.86;100.00;100405.09;4486141;31;35027;-77
2022/10/09 05:54:40;;;;;;;;;;;;;;;13.19;100.00;100408.53;4486030;31;36206;-77
2022/10/09 05:57:26;;;;;;;;;;;;;;;12.52;100.00;100409.13;4496799;31;35216;-77
2022/10/09 06:00:13;;;;;;;;;;;;;;;12.90;100.00;100414.38;4497824;31;33917;-78
2022/10/09 06:02:59;;;;;;;;;;;;;;;12.76;100.00;100410.84;4497391;31;35054;-78
2022/10/09 06:05:45;;;;;;;;;;;;;;;12.91;100.00;100410.50;4497866;31;35397;-78
2022/10/09 06:08:32;;;;;;;;;;;;;;;12.88;100.00;100422.12;4498458;31;35774;-78
2022/10/09 06:11:19;;;;;;;;;;;;;;;12.34;100.00;100421.00;4486511;31;33728;-78
2022/10/09 06:14:07;;;;;;;;;;;;;;;12.45;100.00;100416.94;4486672;31;35978;-78
2022/10/09 06:16:53;;;;;;;;;;;;;;;12.31;100.00;100438.09;4485770;31;36108;-78
2022/10/09 06:19:39;;;;;;;;;;;;;;;12.42;100.00;100439.53;4498298;31;35249;-78
2022/10/09 06:22:25;;;;;;;;;;;;;;;12.65;100.00;100443.22;4487272;31;33899;-79
2022/10/09 06:25:12;;;;;;;;;;;;;;;12.48;100.00;100454.00;4485379;31;35010;-78
2022/10/09 06:27:58;;;;;;;;;;;;;;;12.33;100.00;100457.84;4474691;31;34768;-79
2022/10/09 06:30:44;;;;;;;;;;;;;;;12.80;100.00;100464.09;4486292;31;34929;-78
2022/10/09 06:33:31;;;;;;;;;;;;;;;12.79;100.00;100460.53;4485807;31;33680;-78
2022/10/09 06:36:21;;;;;;;;;;;;;;;12.79;100.00;100462.47;4478878;31;33741;-78
2022/10/09 06:39:08;;;;;;;;;;;;;;;13.03;100.00;100465.84;4483373;31;34915;-78
2022/10/09 06:41:54;;;;;;;;;;;;;;;13.39;100.00;100467.03;4485845;31;36102;-79
2022/10/09 06:44:43;;;;;;;;;;;;;;;13.26;100.00;100468.66;4497571;31;34293;-78
2022/10/09 06:47:29;;;;;;;;;;;;;;;13.66;100.00;100466.09;4497477;31;36057;-78
2022/10/09 06:50:15;;;;;;;;;;;;;;;13.50;100.00;100466.47;4485232;31;35956;-77
2022/10/09 06:53:05;;;;;;;;;;;;;;;13.84;100.00;100478.91;4497474;31;34901;-78
2022/10/09 06:55:52;;;;;;;;;;;;;;;13.70;100.00;100484.47;4486678;31;34758;-79
2022/10/09 06:58:38;;;;;;;;;;;;;;;13.52;100.00;100476.34;4485778;31;35496;-78
2022/10/09 07:01:30;;;;;;;;;;;;;;;13.83;100.00;100485.56;4487960;31;35244;-79
2022/10/09 07:04:17;;;;;;;;;;;;;;;13.89;100.00;100483.50;4486008;31;35425;-78
2022/10/09 07:07:03;;;;;;;;;;;;;;;14.25;100.00;100483.38;4497378;31;34143;-78
2022/10/09 07:09:51;;;;;;;;;;;;;;;14.14;100.00;100474.59;4496894;31;34573;-79
2022/10/09 07:12:37;;;;;;;;;;;;;;;14.36;100.00;100484.75;4474548;31;34788;-79
2022/10/09 07:15:23;;;;;;;;;;;;;;;13.79;100.00;100487.28;4486653;31;36249;-78
2022/10/09 07:18:09;;;;;;;;;;;;;;;14.30;100.00;100490.72;4486120;31;34102;-78
2022/10/09 07:20:56;;;;;;;;;;;;;;;14.35;100.00;100493.34;4497225;31;34523;-78
2022/10/09 07:23:42;;;;;;;;;;;;;;;14.33;100.00;100496.41;4497416;31;35960;-78
2022/10/09 07:26:29;;;;;;;;;;;;;;;14.76;100.00;100503.31;4486447;31;35375;-79
2022/10/09 07:29:15;;;;;;;;;;;;;;;14.93;100.00;100494.31;4484970;31;34332;-79
2022/10/09 07:32:01;;;;;;;;;;;;;;;15.01;100.00;100493.53;4497053;31;35098;-79
2022/10/09 07:34:54;;;;;;;;;;;;;;;15.50;100.00;100499.78;4497356;31;36250;-80
2022/10/09 07:37:40;;;;;;;;;;;;;;;15.58;100.00;100500.94;4497373;31;34662;-80
2022/10/09 07:40:26;;;;;;;;;;;;;;;15.60;100.00;100502.25;4497225;31;35002;-80
2022/10/09 07:43:13;;;;;;;;;;;;;;;15.09;100.00;100503.78;4497617;31;35804;-79
2022/10/09 07:45:59;;;;;;;;;;;;;;;15.20;100.00;100505.09;4486064;31;35992;-79
2022/10/09 07:48:45;;;;;;;;;;;;;;;15.18;100.00;100504.59;4486011;31;34542;-80
2022/10/09 07:51:31;;;;;;;;;;;;;;;15.58;100.00;100512.81;4486808;31;32869;-79
2022/10/09 07:54:18;;;;;;;;;;;;;;;15.77;100.00;100504.25;4484965;31;34897;-79
2022/10/09 07:57:04;;;;;;;;;;;;;;;15.93;100.00;100513.66;4497198;31;36175;-79
2022/10/09 07:59:49;;;;;;;;;;;;;;;15.36;100.00;100504.66;4496831;31;34880;-79
2022/10/09 08:02:35;;;;;;;;;;;;;;;15.32;100.00;100506.44;4485819;31;33667;-79
2022/10/09 08:05:22;;;;;;;;;;;;;;;15.89;100.00;100495.31;4497071;31;34993;-79
2022/10/09 08:08:08;;;;;;;;;;;;;;;15.81;100.00;100507.16;4496746;31;35184;-79
2022/10/09 08:10:54;;;;;;;;;;;;;;;16.11;100.00;100506.19;4483292;31;34531;-78
2022/10/09 08:13:40;;;;;;;;;;;;;;;15.74;100.00;100500.19;4493604;31;33743;-80
2022/10/09 08:16:27;;;;;;;;;;;;;;;16.00;100.00;100504.09;4480426;31;34890;-79
2022/10/09 08:19:13;;;;;;;;;;;;;;;15.98;100.00;100503.59;4480014;31;34825;-78
2022/10/09 08:21:59;;;;;;;;;;;;;;;15.64;100.00;100492.16;4490858;31;33334;-80
2022/10/09 08:24:48;;;;;;;;;;;;;;;15.71;100.00;100500.03;4493164;31;34034;-78
2022/10/09 08:27:34;;;;;;;;;;;;;;;16.09;100.00;100500.16;4494430;31;35046;-78
2022/10/09 08:30:20;;;;;;;;;;;;;;;16.07;100.00;100502.44;4482311;31;35901;-79
2022/10/09 08:33:07;;;;;;;;;;;;;;;16.45;100.00;100507.25;4482436;31;37829;-78
2022/10/09 08:35:53;;;;;;;;;;;;;;;15.89;100.00;100506.34;4481630;31;34161;-78
2022/10/09 08:38:39;;;;;;;;;;;;;;;16.46;100.00;100514.41;4493687;31;36278;-79
2022/10/09 08:41:37;;;;;;;;;;;;;;;16.47;100.00;100518.78;4494008;31;34822;-78
2022/10/09 08:44:23;;;;;;;;;;;;;;;16.54;100.00;100523.84;4482459;31;35363;-78
2022/10/09 08:47:09;;;;;;;;;;;;;;;16.63;97.42;100521.84;4481928;31;34897;-79
2022/10/09 08:50:00;;;;;;;;;;;;;;;16.85;94.94;100516.09;4480457;31;33205;-78
2022/10/09 08:53:06;;;;;;;;;;;;;;;16.84;94.57;100524.72;4481130;31;35617;-77
2022/10/09 08:55:56;;;;;;;;;;;;;;;17.40;92.56;100517.12;4492592;31;34944;-79
2022/10/09 08:58:42;;;;;;;;;;;;;;;17.21;90.05;100519.50;4484198;31;33873;-78
2022/10/09 09:01:36;;;;;;;;;;;;;;;17.33;90.10;100529.88;4482017;31;34270;-78
2022/10/09 09:04:34;;;;;;;;;;;;;;;17.70;86.00;100529.00;4481206;31;35584;-78
2022/10/09 09:07:26;;;;;;;;;;;;;;;17.32;87.73;100540.16;4493404;31;34549;-78
2022/10/09 09:10:15;;;;;;;;;;;;;;;17.07;86.61;100534.41;4493428;31;34073;-78
2022/10/09 09:13:17;;;;;;;;;;;;;;;16.88;88.21;100531.25;4484475;31;34892;-77
2022/10/09 09:16:12;;;;;;;;;;;;;;;17.00;87.67;100525.00;4469030;31;35826;-78
2022/10/09 09:19:05;;;;;;;;;;;;;;;17.25;87.04;100534.34;4480527;31;35138;-78
2022/10/09 09:21:51;;;;;;;;;;;;;;;17.50;85.11;100536.13;4493226;31;33388;-77
2022/10/09 09:24:40;;;;;;;;;;;;;;;17.68;83.73;100536.03;4497949;31;34684;-78
2022/10/09 09:27:37;;;;;;;;;;;;;;;17.41;80.54;100543.66;4482728;31;34751;-77
2022/10/09 09:30:28;;;;;;;;;;;;;;;17.53;81.15;100540.16;4486728;31;34498;-78
2022/10/09 09:33:26;;;;;;;;;;;;;;;17.59;83.69;100530.53;4485016;31;32965;-78
2022/10/09 09:36:30;;;;;;;;;;;;;;;17.63;80.44;100541.75;4496984;31;34728;-78
2022/10/09 09:39:24;;;;;;;;;;;;;;;18.17;77.73;100539.06;4475964;31;34425;-79
2022/10/09 09:42:30;;;;;;;;;;;;;;;17.98;78.33;100542.31;4496790;31;34700;-78
2022/10/09 09:45:19;;;;;;;;;;;;;;;17.70;77.93;100553.09;4496292;31;33670;-78
2022/10/09 09:48:09;;;;;;;;;;;;;;;17.68;78.34;100547.91;4495462;31;34522;-79
2022/10/09 09:50:55;;;;;;;;;;;;;;;18.29;76.11;100543.84;4484087;31;36203;-79
2022/10/09 09:54:03;;;;;;;;;;;;;;;18.83;74.90;100541.81;4486177;31;34699;-80
2022/10/09 09:56:49;;;;;;;;;;;;;;;19.15;74.32;100542.09;4474771;31;35353;-81
2022/10/09 10:00:05;;;;;;;;;;;;;;;19.31;71.98;100543.00;4487257;31;34479;-81
2022/10/09 10:03:01;;;;;;;;;;;;;;;18.94;72.02;100549.72;4496758;31;35266;-79
2022/10/09 10:05:48;;;;;;;;;;;;;;;17.66;78.91;100550.19;4496258;31;34588;-79
2022/10/09 10:08:34;;;;;;;;;;;;;;;17.84;80.69;100553.69;4497027;31;34066;-79
2022/10/09 10:11:20;;;;;;;;;;;;;;;18.22;77.58;100549.97;4485532;31;35763;-79
2022/10/09 10:14:07;;;;;;;;;;;;;;;18.23;76.38;100561.88;4497143;31;34582;-79
2022/10/09 10:16:53;;;;;;;;;;;;;;;19.03;73.46;100561.53;4493849;31;34359;-80
2022/10/09 10:19:39;;;;;;;;;;;;;;;18.29;76.67;100552.19;4482907;31;32510;-81
2022/10/09 10:22:26;;;;;;;;;;;;;;;18.97;73.69;100562.91;4483765;31;35428;-79
2022/10/09 10:25:14;;;;;;;;;;;;;;;19.32;71.87;100552.16;4476638;31;36121;-79
2022/10/09 10:28:14;;;;;;;;;;;;;;;19.84;72.01;100545.06;4496651;31;35963;-78
2022/10/09 10:31:02;;;;;;;;;;;;;;;19.09;68.95;100554.59;4484276;31;34952;-79
2022/10/09 10:33:49;;;;;;;;;;;;;;;19.27;66.77;100555.19;4482207;31;34166;-79
2022/10/09 10:36:35;;;;;;;;;;;;;;;19.30;67.71;100560.84;4486298;31;34579;-79
2022/10/09 10:39:30;;;;;;;;;;;;;;;19.55;70.93;100555.25;4483593;31;35615;-79
2022/10/09 10:42:30;;;;;;;;;;;;;;;19.44;67.74;100554.94;4488393;31;32672;-79
2022/10/09 10:45:27;;;;;;;;;;;;;;;19.12;68.96;100565.00;4495630;31;34930;-79
2022/10/09 10:48:33;;;;;;;;;;;;;;;19.65;69.16;100557.59;4484204;31;35347;-79
2022/10/09 10:51:31;;;;;;;;;;;;;;;19.32;72.60;100555.78;4483518;31;34263;-79
2022/10/09 10:54:17;;;;;;;;;;;;;;;19.44;68.29;100554.94;4496492;31;34210;-79
2022/10/09 10:57:14;;;;;;;;;;;;;;;18.90;70.92;100555.16;4494218;31;35097;-79
2022/10/09 11:00:07;;;;;;;;;;;;;;;18.71;70.61;100558.44;4478579;31;36042;-79
2022/10/09 11:02:57;;;;;;;;;;;;;;;18.90;67.71;100546.00;4483011;31;34235;-79
2022/10/09 11:05:58;;;;;;;;;;;;;;;18.75;69.90;100551.06;4492268;31;34306;-79
2022/10/09 11:08:47;;;;;;;;;;;;;;;19.18;70.21;100541.41;4495399;31;35629;-79
2022/10/09 11:11:39;;;;;;;;;;;;;;;19.49;65.83;100540.78;4483256;31;33748;-79
2022/10/09 11:14:28;;;;;;;;;;;;;;;20.10;62.60;100541.84;4483396;31;35170;-79
2022/10/09 11:17:17;;;;;;;;;;;;;;;19.48;63.36;100539.19;4495589;31;34103;-79
2022/10/09 11:20:04;;;;;;;;;;;;;;;20.51;61.75;100537.81;4482235;31;33656;-80
2022/10/09 11:22:56;;;;;;;;;;;;;;;20.47;63.25;100550.84;4494380;31;35473;-80
2022/10/09 11:25:49;;;;;;;;;;;;;;;19.77;66.46;100535.34;4494592;31;35094;-80
2022/10/09 11:28:38;;;;;;;;;;;;;;;19.14;66.37;100532.13;4470888;31;865494;-80
2022/10/09 11:31:29;;;;;;;;;;;;;;;19.25;64.71;100530.53;4486070;31;33820;-80
2022/10/09 11:34:22;;;;;;;;;;;;;;;19.38;65.85;100534.12;4481790;31;35936;-80
2022/10/09 11:37:13;;;;;;;;;;;;;;;20.09;64.71;100532.69;4488061;31;34426;-80
2022/10/09 11:40:20;;;;;;;;;;;;;;;19.63;63.67;100529.31;4484289;31;34263;-80
2022/10/09 11:43:12;;;;;;;;;;;;;;;20.33;61.46;100523.44;4494659;31;34526;-80
2022/10/09 11:46:00;;;;;;;;;;;;;;;19.22;61.89;100520.09;4496806;31;34880;-80
2022/10/09 11:49:05;;;;;;;;;;;;;;;19.61;60.49;100520.53;4486794;31;34931;-80
2022/10/09 11:51:55;;;;;;;;;;;;;;;19.70;61.22;100512.88;4496007;31;33786;-80
2022/10/09 11:54:42;;;;;;;;;;;;;;;19.50;62.66;100522.16;4483985;31;34854;-80
2022/10/09 11:57:28;;;;;;;;;;;;;;;20.67;57.21;100522.00;4484256;31;36059;-81
2022/10/09 12:00:15;;;;;;;;;;;;;;;20.75;54.96;100522.16;4496105;31;34656;-80
2022/10/09 12:03:02;;;;;;;;;;;;;;;21.25;57.84;100520.62;4477738;31;33883;-80
2022/10/09 12:05:47;;;;;;;;;;;;;;;19.87;60.21;100511.81;4483504;31;36063;-80
2022/10/09 12:08:34;;;;;;;;;;;;;;;20.51;58.27;100512.78;4495930;31;34945;-80
2022/10/09 12:11:20;;;;;;;;;;;;;;;20.19;60.09;100511.91;4484414;31;34835;-80
2022/10/09 12:14:07;;;;;;;;;;;;;;;19.46;62.39;100510.91;4484127;31;33846;-80
2022/10/09 12:16:53;;;;;;;;;;;;;;;19.49;60.01;100506.62;4484057;31;34874;-80
2022/10/09 12:19:40;;;;;;;;;;;;;;;20.16;59.54;100510.63;4483644;31;35299;-80
2022/10/09 12:22:35;;;;;;;;;;;;;;;19.79;58.73;100504.41;4487105;31;35874;-80
2022/10/09 12:25:21;;;;;;;;;;;;;;;19.56;60.14;100504.09;4485586;31;34183;-80
2022/10/09 12:28:12;;;;;;;;;;;;;;;20.85;55.11;100516.06;4496365;31;34940;-81
2022/10/09 12:30:59;;;;;;;;;;;;;;;21.01;54.94;100514.09;4483012;31;36161;-81
2022/10/09 12:33:50;;;;;;;;;;;;;;;20.95;54.78;100517.53;4483802;31;35643;-81
2022/10/09 12:36:36;;;;;;;;;;;;;;;21.21;50.68;100505.81;4475891;31;34127;-80
2022/10/09 12:39:22;;;;;;;;;;;;;;;21.87;51.01;100504.91;4495830;31;35883;-80
2022/10/09 12:42:12;;;;;;;;;;;;;;;21.62;50.95;100511.94;4483301;31;35141;-80
2022/10/09 12:44:58;;;;;;;;;;;;;;;21.97;51.98;100504.34;4482393;31;34847;-80
2022/10/09 12:47:44;;;;;;;;;;;;;;;22.35;49.90;100502.72;4485124;31;34098;-80
2022/10/09 12:50:31;;;;;;;;;;;;;;;22.70;49.31;100490.59;4495699;31;34678;-80
2022/10/09 12:53:18;;;;;;;;;;;;;;;23.35;49.16;100493.25;4480147;31;36459;-80
2022/10/09 12:56:09;;;;;;;;;;;;;;;23.66;50.11;100488.50;4484597;31;34800;-80
2022/10/09 12:58:56;;;;;;;;;;;;;;;23.82;49.59;100487.50;4485020;31;33923;-80
2022/10/09 13:01:41;;;;;;;;;;;;;;;24.02;47.73;100480.56;4495451;31;34999;-80
2022/10/09 13:04:29;;;;;;;;;;;;;;;24.27;48.05;100474.44;4483771;31;35963;-80
2022/10/09 13:07:17;;;;;;;;;;;;;;;24.51;47.67;100473.94;4486186;31;34774;-80
2022/10/09 13:10:05;;;;;;;;;;;;;;;24.97;46.77;100478.31;4485071;31;34045;-80
2022/10/09 13:12:52;;;;;;;;;;;;;;;25.04;46.20;100467.94;4478417;31;34863;-80
2022/10/09 13:15:38;;;;;;;;;;;;;;;25.22;46.74;100472.94;4486138;31;35147;-80
2022/10/09 13:18:24;;;;;;;;;;;;;;;25.62;46.45;100474.75;4490487;31;35146;-80
2022/10/09 13:21:21;;;;;;;;;;;;;;;25.48;44.88;100463.47;4484809;31;34821;-80
2022/10/09 13:24:08;;;;;;;;;;;;;;;25.48;46.21;100464.28;4496987;31;34991;-80
2022/10/09 13:26:54;;;;;;;;;;;;;;;25.82;45.42;100469.66;4497449;31;35294;-80
2022/10/09 13:29:43;;;;;;;;;;;;;;;25.93;43.94;100466.91;4497585;31;35200;-80
2022/10/09 13:32:29;;;;;;;;;;;;;;;26.39;43.42;100466.22;4485351;31;34114;-80
2022/10/09 13:35:15;;;;;;;;;;;;;;;26.76;43.47;100468.69;4484557;31;35017;-80
2022/10/09 13:38:01;;;;;;;;;;;;;;;26.66;43.51;100466.69;4484465;31;36204;-80
2022/10/09 13:40:47;;;;;;;;;;;;;;;26.77;44.26;100456.25;4497029;31;34648;-80
2022/10/09 13:43:33;;;;;;;;;;;;;;;26.81;43.76;100459.03;4496728;31;35478;-80
2022/10/09 13:46:19;;;;;;;;;;;;;;;27.02;43.28;100463.87;4496663;31;35874;-80
2022/10/09 13:49:05;;;;;;;;;;;;;;;26.67;43.06;100454.25;4486425;31;36235;-80
2022/10/09 13:51:51;;;;;;;;;;;;;;;26.41;43.47;100447.78;4474776;31;34893;-80
2022/10/09 13:54:37;;;;;;;;;;;;;;;26.39;43.16;100447.34;4481683;31;34868;-80
2022/10/09 13:57:23;;;;;;;;;;;;;;;26.80;41.27;100454.63;4497189;31;34564;-80
2022/10/09 14:00:10;;;;;;;;;;;;;;;25.67;45.65;100453.91;4496961;31;34927;-80
2022/10/09 14:02:56;;;;;;;;;;;;;;;26.30;43.69;100452.56;4468590;31;34927;-80
2022/10/09 14:05:43;;;;;;;;;;;;;;;26.22;43.82;100457.37;4497383;31;33829;-79
2022/10/09 14:08:29;;;;;;;;;;;;;;;25.64;43.33;100449.91;4484634;31;34848;-80
2022/10/09 14:11:15;;;;;;;;;;;;;;;26.09;43.31;100455.31;4496755;31;35329;-80
2022/10/09 14:14:02;;;;;;;;;;;;;;;25.18;45.57;100452.47;4484366;31;34978;-80
2022/10/09 14:16:49;;;;;;;;;;;;;;;25.55;45.05;100460.69;4496410;31;33838;-80
2022/10/09 14:19:35;;;;;;;;;;;;;;;25.58;45.26;100454.28;4495871;31;34651;-80